Airport ID:9NM9
Update Time (UTC):29/03/2020 09:04
Wind Speed (Knots):6
Wind Direction (Magnetic):260
Temperature (°C):3.9
Dew Point (°C):-7
Humidity (%):45.3
Altimeter (inHg):30.06
Density Altitude (Feet):
Visibility (Miles):10
Clouds (Hundreds of feet):CLR
Present Weather:
METAR:METAR 9NM9 290900Z AUTO 24004KT 10SM CLR 04/M07 A3006 RMK AO2

The data displayed is for advisory purposes only and is not to be used for flight planning or operations.

This page is not automatically refreshed. Reload the page to see current data.